Saga Wave — VRYO7 — position and weather

sailwx.info

Track history (hours):
 
Tides and Currents Weather Stations Pressure Air Temp Water Temp Dewpoint Dewpoint Depression Visibility Wind Speed Wind Dir Waves Ship Positions

Saga Wave

Last reported at 2017-Nov-19 23:28 UTC. Time now 2017-Dec-11 23:09 UTC.
Position N 37°11' W 012°53'.
Warning: this ship's position is 21 days out of date.

Length 199.2 m; beam 30.5 m; draft 11.9 m.

Type: Cargo ship. MMSI: 367309456.

Date/timePositionNaut miles runAvg speedWind from/ knotsBaromVisibWave heightAir tempDewpointWater temp
2017-Nov-19 23:28N 37°11' W 012°53'813.9
2017-Nov-19 22:54N 37°19' W 012°50'5314.2
2017-Nov-19 19:08N 38°10' W 012°33'614.0
2017-Nov-19 18:42N 38°16' W 012°31'314.0
2017-Nov-19 18:30N 38°19' W 012°31'1014.1
2017-Nov-19 17:47N 38°29' W 012°27'414.0
2017-Nov-19 17:30N 38°32' W 012°26'714.0
2017-Nov-19 17:00N 38°39' W 012°23'714.1
2017-Nov-19 16:30N 38°46' W 012°21'814.2
2017-Nov-19 15:55N 38°54' W 012°18'1514.2
2017-Nov-19 14:52N 39°08' W 012°13'613.8
2017-Nov-19 14:25N 39°14' W 012°11'613.8
2017-Nov-19 14:01N 39°20' W 012°10'813.8
2017-Nov-19 13:27N 39°27' W 012°07'714.0
2017-Nov-19 12:58N 39°34' W 012°05'714.2
2017-Nov-19 12:30N 39°40' W 012°03'713.9
2017-Nov-19 12:00N 39°47' W 012°01'714.0
2017-Nov-19 11:30N 39°54' W 011°58'713.8
2017-Nov-19 11:00N 40°00' W 011°56'713.8
2017-Nov-19 10:30N 40°07' W 011°54'713.9
2017-Nov-19 10:00N 40°14' W 011°51'1213.7
2017-Nov-19 09:06N 40°26' W 011°47'2614.1
2017-Nov-19 07:14N 40°51' W 011°37'2213.7
2017-Nov-19 05:38N 41°12' W 011°30'214.0
2017-Nov-19 05:29N 41°14' W 011°30'713.9
2017-Nov-19 05:00N 41°21' W 011°28'713.7
2017-Nov-19 04:30N 41°27' W 011°25'35213.4
2017-Nov-18 02:20N 46°45' W 007°56'513.5
2017-Nov-18 01:58N 46°49' W 007°52'613.7
2017-Nov-18 01:30N 46°55' W 007°47'913.5
2017-Nov-18 00:48N 47°02' W 007°39'513.6
2017-Nov-18 00:28N 47°06' W 007°35'813.4
2017-Nov-17 23:54N 47°13' W 007°30'613.5
2017-Nov-17 23:29N 47°18' W 007°25'1014.1
2017-Nov-17 22:48N 47°26' W 007°18'614.3
2017-Nov-17 22:23N 47°31' W 007°13'714.0
2017-Nov-17 21:53N 47°36' W 007°07'614.2
2017-Nov-17 21:30N 47°41' W 007°02'714.4
2017-Nov-17 20:59N 47°47' W 006°56'714.5
2017-Nov-17 20:29N 47°53' W 006°49'814.8
2017-Nov-17 19:54N 47°59' W 006°41'814.7
2017-Nov-17 19:24N 48°05' W 006°34'614.5
2017-Nov-17 18:58N 48°10' W 006°28'714.5
2017-Nov-17 18:28N 48°16' W 006°22'1114.1
2017-Nov-17 17:40N 48°25' W 006°12'313.9
2017-Nov-17 17:27N 48°27' W 006°09'1013.7
2017-Nov-17 16:44N 48°36' W 006°02'413.5
2017-Nov-17 16:28N 48°39' W 005°60'713.0
2017-Nov-17 15:54N 48°46' W 005°54'612.9
2017-Nov-17 15:27N 48°51' W 005°50'611.9
2017-Nov-17 14:58N 48°55' W 005°44'3212.4
2017-Nov-17 12:24N 49°11' W 005°02'713.6
2017-Nov-17 11:52N 49°15' W 004°52'6514.4
2017-Nov-17 07:21N 49°48' W 003°26'413.0
2017-Nov-17 07:00N 49°50' W 003°20'612.6
2017-Nov-17 06:30N 49°54' W 003°12'612.3
2017-Nov-17 06:00N 49°56' W 003°03'612.3
2017-Nov-17 05:30N 49°58' W 002°54'612.4
2017-Nov-17 05:00N 49°60' W 002°45'612.7
2017-Nov-17 04:30N 50°01' W 002°35'1813.8
2017-Nov-17 03:12N 50°06' W 002°08'315.1
2017-Nov-17 03:00N 50°07' W 002°04'815.6
2017-Nov-17 02:30N 50°09' W 001°52'816.4
2017-Nov-17 02:00N 50°11' W 001°40'816.8
2017-Nov-17 01:31N 50°14' W 001°27'816.9
2017-Nov-17 01:01N 50°16' W 001°15'3216.1
2017-Nov-16 23:01N 50°25' W 000°26'115.1
2017-Nov-16 22:59N 50°25' W 000°25'714.6
2017-Nov-16 22:30N 50°27' W 000°15'713.9
2017-Nov-16 22:01N 50°28' W 000°04'713.5
2017-Nov-16 21:30N 50°30' E 000°06'612.9
2017-Nov-16 21:00N 50°32' E 000°16'612.3
2017-Nov-16 20:30N 50°34' E 000°25'611.7
2017-Nov-16 20:01N 50°35' E 000°34'611.6
2017-Nov-16 19:31N 50°39' E 000°42'611.8
2017-Nov-16 19:00N 50°42' E 000°49'612.3
2017-Nov-16 18:31N 50°45' E 000°58'713.1
2017-Nov-16 18:00N 50°48' E 001°07'713.6
2017-Nov-16 17:29N 50°52' E 001°16'713.9
2017-Nov-16 17:00N 50°58' E 001°22'713.9
2017-Nov-16 16:30N 51°03' E 001°30'713.0
2017-Nov-16 16:00N 51°07' E 001°37'612.5
2017-Nov-16 15:31N 51°12' E 001°44'611.8
2017-Nov-16 15:00N 51°17' E 001°49'611.1
2017-Nov-16 14:30N 51°21' E 001°54'510.8
2017-Nov-16 14:00N 51°26' E 001°58'510.6
2017-Nov-16 13:30N 51°30' E 002°04'510.4
2017-Nov-16 13:00N 51°34' E 002°09'510.0
2017-Nov-16 12:30N 51°38' E 002°15'510.1
2017-Nov-16 12:00N 51°42' E 002°18'510.1
2017-Nov-16 11:30N 51°46' E 002°23'7312.3
2017-Nov-16 05:35N 52°43' E 003°38'712.4
2017-Nov-16 05:03N 52°48' E 003°45'112.2
2017-Nov-16 04:59N 52°49' E 003°46'611.9
2017-Nov-16 04:30N 52°53' E 003°52'611.7
2017-Nov-16 04:00N 52°58' E 003°58'611.5
2017-Nov-16 03:30N 53°01' E 004°06'611.5
2017-Nov-16 03:00N 53°05' E 004°13'611.3
2017-Nov-16 02:30N 53°08' E 004°21'510.4
2017-Nov-16 02:00N 53°12' E 004°26'611.1
2017-Nov-16 01:29N 53°18' E 004°29'  
2017-Nov-13 01:58N 63°01' E 007°49'0 0.0
2017-Nov-13 01:28N 63°01' E 007°49'0 0.2
2017-Nov-13 00:58N 63°01' E 007°49'0 0.0
2017-Nov-13 00:28N 63°01' E 007°49'0 0.0
2017-Nov-12 23:58N 63°01' E 007°49'0 0.2
2017-Nov-12 23:28N 63°01' E 007°49'0 0.2
2017-Nov-12 22:58N 63°01' E 007°49'0 0.1
2017-Nov-12 22:28N 63°01' E 007°49'0 0.0
2017-Nov-12 21:58N 63°01' E 007°49'0 0.1
2017-Nov-12 21:28N 63°01' E 007°49'0 0.1
2017-Nov-12 20:58N 63°01' E 007°49'0 0.2
2017-Nov-12 20:28N 63°01' E 007°49'0 0.1
2017-Nov-12 19:58N 63°01' E 007°49'0 0.0
2017-Nov-12 19:28N 63°01' E 007°49'0 0.0
2017-Nov-12 18:58N 63°01' E 007°49'0 0.0
2017-Nov-12 18:28N 63°01' E 007°49'0 0.0
2017-Nov-12 17:58N 63°01' E 007°49'0 0.0
2017-Nov-12 17:28N 63°01' E 007°49'0 0.0
2017-Nov-12 16:58N 63°01' E 007°49'0 0.1
2017-Nov-12 16:28N 63°01' E 007°49'0 0.0
2017-Nov-12 15:58N 63°01' E 007°49'0 0.3
2017-Nov-12 15:28N 63°01' E 007°49'0 0.1
2017-Nov-12 14:58N 63°01' E 007°49'0 0.1
2017-Nov-12 14:28N 63°01' E 007°49'0 0.0
2017-Nov-12 13:58N 63°01' E 007°49'0 0.0
2017-Nov-12 13:28N 63°01' E 007°49'0 0.0
2017-Nov-12 12:58N 63°01' E 007°49'0 0.0
2017-Nov-12 12:28N 63°01' E 007°49'0 0.1
2017-Nov-12 11:58N 63°01' E 007°49'0 0.1
2017-Nov-12 11:28N 63°01' E 007°49'0 0.1
2017-Nov-12 10:58N 63°01' E 007°49'0 0.1
2017-Nov-12 10:28N 63°01' E 007°49'0 0.0
2017-Nov-12 09:58N 63°01' E 007°49'0 0.1
2017-Nov-12 09:28N 63°01' E 007°49'0 0.0
2017-Nov-12 08:58N 63°01' E 007°49'0 0.1
2017-Nov-12 08:28N 63°01' E 007°49'0 0.1
2017-Nov-12 07:58N 63°01' E 007°49'0 0.0
2017-Nov-12 07:28N 63°01' E 007°49'0 0.1
2017-Nov-12 06:58N 63°01' E 007°49'0 0.2
2017-Nov-12 06:28N 63°01' E 007°49'0 0.2
2017-Nov-12 05:58N 63°01' E 007°49'0 0.1
2017-Nov-12 05:28N 63°01' E 007°49'0 0.2
2017-Nov-12 04:58N 63°01' E 007°49'0 0.1
2017-Nov-12 04:28N 63°01' E 007°49'0 0.1
2017-Nov-12 03:58N 63°01' E 007°49'0 0.2
2017-Nov-12 03:28N 63°01' E 007°49'0 0.3
2017-Nov-12 02:58N 63°01' E 007°49'0 0.0
2017-Nov-12 02:28N 63°01' E 007°49'0 0.1
2017-Nov-12 01:58N 63°01' E 007°49'0 0.1
2017-Nov-12 01:28N 63°01' E 007°49'0 0.0
2017-Nov-12 00:58N 63°01' E 007°49'0 0.1
2017-Nov-12 00:28N 63°01' E 007°49'0 0.0
2017-Nov-11 23:58N 63°01' E 007°49'0 0.0
2017-Nov-11 23:28N 63°01' E 007°49'0 0.0
2017-Nov-11 22:58N 63°01' E 007°49'0 0.0
2017-Nov-11 22:28N 63°01' E 007°49'0 0.0
2017-Nov-11 21:58N 63°01' E 007°49'0 0.0
2017-Nov-11 21:28N 63°01' E 007°49'0 0.0
2017-Nov-11 20:58N 63°01' E 007°49'0 0.0
2017-Nov-11 20:28N 63°01' E 007°49'0 0.0
2017-Nov-11 19:58N 63°01' E 007°49'0 0.1
2017-Nov-11 19:28N 63°01' E 007°49'0 0.0
2017-Nov-11 18:58N 63°01' E 007°49'0 0.0
2017-Nov-11 18:28N 63°01' E 007°49'0 0.0
2017-Nov-11 17:58N 63°01' E 007°49'0 0.0
2017-Nov-11 17:28N 63°01' E 007°49'0 0.0
2017-Nov-11 16:58N 63°01' E 007°49'0 0.1
2017-Nov-11 16:28N 63°01' E 007°49'0 0.1
2017-Nov-11 15:58N 63°01' E 007°49'0 0.0
2017-Nov-11 15:28N 63°01' E 007°49'0 0.0
2017-Nov-11 14:58N 63°01' E 007°49'0 0.0
2017-Nov-11 14:28N 63°01' E 007°49'0 0.0
2017-Nov-11 13:58N 63°01' E 007°49'0 0.0
2017-Nov-11 13:28N 63°01' E 007°49'0 0.0
2017-Nov-11 12:58N 63°01' E 007°49'0 0.1
2017-Nov-11 12:28N 63°01' E 007°49'0 0.1
2017-Nov-11 11:58N 63°01' E 007°49'0 0.1
2017-Nov-11 11:28N 63°01' E 007°49'0 0.0
2017-Nov-11 10:58N 63°01' E 007°49'0 0.0
2017-Nov-11 10:28N 63°01' E 007°49'0 0.0
2017-Nov-11 09:58N 63°01' E 007°49'0 0.1
2017-Nov-11 09:28N 63°01' E 007°49'0 0.1
2017-Nov-11 08:58N 63°01' E 007°49'0 0.1
2017-Nov-11 08:28N 63°01' E 007°49'0 0.0
2017-Nov-11 07:58N 63°01' E 007°49'0 0.0
2017-Nov-11 07:28N 63°01' E 007°49'0 0.0
2017-Nov-11 06:58N 63°01' E 007°49'0 0.0
2017-Nov-11 06:28N 63°01' E 007°49'0 0.0
2017-Nov-11 05:58N 63°01' E 007°49'0 0.1
2017-Nov-11 05:28N 63°01' E 007°49'0 0.2
2017-Nov-11 04:58N 63°01' E 007°49'0 0.1
2017-Nov-11 04:28N 63°01' E 007°49'0 0.0
2017-Nov-11 03:58N 63°01' E 007°49'0 0.1
2017-Nov-11 03:28N 63°01' E 007°49'0 0.1
2017-Nov-11 02:58N 63°01' E 007°49'0 0.1
2017-Nov-11 02:28N 63°01' E 007°49'0 0.1
2017-Nov-11 01:58N 63°01' E 007°49'0 0.0
2017-Nov-11 01:28N 63°01' E 007°49'0 0.1
2017-Nov-11 00:58N 63°01' E 007°49'0 0.1
2017-Nov-11 00:28N 63°01' E 007°49'0 0.2
2017-Nov-10 23:58N 63°01' E 007°49'0 0.0
2017-Nov-10 23:28N 63°01' E 007°49'0 0.0
2017-Nov-10 22:58N 63°01' E 007°49'0 0.0
2017-Nov-10 22:28N 63°01' E 007°49'0 0.0
2017-Nov-10 21:58N 63°01' E 007°49'0 0.0
2017-Nov-10 21:28N 63°01' E 007°49'0 0.0
2017-Nov-10 20:58N 63°01' E 007°49'0 0.1
2017-Nov-10 20:28N 63°01' E 007°49'0 0.0
2017-Nov-10 19:58N 63°01' E 007°49'0 0.0
2017-Nov-10 19:28N 63°01' E 007°49'0 0.1
2017-Nov-10 18:58N 63°01' E 007°49'0 0.0
2017-Nov-10 18:28N 63°01' E 007°49'0 0.1
2017-Nov-10 17:58N 63°01' E 007°49'0 0.0
2017-Nov-10 17:28N 63°01' E 007°49'0 0.0
2017-Nov-10 16:58N 63°01' E 007°49'0 0.2
2017-Nov-10 16:28N 63°01' E 007°49'0 0.2
2017-Nov-10 15:58N 63°01' E 007°49'0 0.2
2017-Nov-10 15:28N 63°01' E 007°49'0 0.1
2017-Nov-10 14:58N 63°01' E 007°49'0 0.1
2017-Nov-10 14:28N 63°01' E 007°49'0 0.1
2017-Nov-10 13:58N 63°01' E 007°49'0 0.0
2017-Nov-10 13:28N 63°01' E 007°49'0 0.0
2017-Nov-10 12:58N 63°01' E 007°49'0 0.0
2017-Nov-10 12:28N 63°01' E 007°49'0 0.1
2017-Nov-10 11:58N 63°01' E 007°49'0 0.1
2017-Nov-10 11:28N 63°01' E 007°49'0 0.1
2017-Nov-10 10:58N 63°01' E 007°49'0 0.0
2017-Nov-10 10:28N 63°01' E 007°49'0 0.1
2017-Nov-10 09:58N 63°01' E 007°49'0 0.0
2017-Nov-10 09:28N 63°01' E 007°49'0 0.0
2017-Nov-10 08:58N 63°01' E 007°49'0 0.0
2017-Nov-10 08:28N 63°01' E 007°49'0 0.1
2017-Nov-10 07:58N 63°01' E 007°49'0 0.0
2017-Nov-10 07:28N 63°01' E 007°49'0 0.1
2017-Nov-10 06:58N 63°01' E 007°49'0 0.1
2017-Nov-10 06:28N 63°01' E 007°49'0 0.0
2017-Nov-10 05:58N 63°01' E 007°49'0 0.0
2017-Nov-10 05:28N 63°01' E 007°49'0 0.0
2017-Nov-10 04:58N 63°01' E 007°49'0 0.1
2017-Nov-10 04:28N 63°01' E 007°49'0 0.0
2017-Nov-10 03:58N 63°01' E 007°49'0 0.0
2017-Nov-10 03:28N 63°01' E 007°49'0 0.1
2017-Nov-10 02:58N 63°01' E 007°49'0 0.1
2017-Nov-10 02:28N 63°01' E 007°49'0 0.0
2017-Nov-10 01:58N 63°01' E 007°49'0 0.0
2017-Nov-10 01:28N 63°01' E 007°49'0 0.0
2017-Nov-10 00:58N 63°01' E 007°49'0 0.0
2017-Nov-10 00:28N 63°01' E 007°49'0 0.0
2017-Nov-09 23:58N 63°01' E 007°49'  
Track history (hours):
 
Tides and Currents Weather Stations Pressure Air Temp Water Temp Dewpoint Dewpoint Depression Visibility Wind Speed Wind Dir Waves Ship Positions

Saga Wave

Last reported at 2017-Nov-19 23:28 UTC. Time now 2017-Dec-11 23:09 UTC.
Position N 37°11' W 012°53'.
Warning: this ship's position is 21 days out of date.

Length 199.2 m; beam 30.5 m; draft 11.9 m.

Type: Cargo ship. MMSI: 367309456.

Date/timePositionNaut miles runAvg speedWind from/ knotsBaromVisibWave heightAir tempDewpointWater temp
2017-Nov-19 23:28N 37°11' W 012°53'813.9
2017-Nov-19 22:54N 37°19' W 012°50'5314.2
2017-Nov-19 19:08N 38°10' W 012°33'614.0
2017-Nov-19 18:42N 38°16' W 012°31'314.0
2017-Nov-19 18:30N 38°19' W 012°31'1014.1
2017-Nov-19 17:47N 38°29' W 012°27'414.0
2017-Nov-19 17:30N 38°32' W 012°26'714.0
2017-Nov-19 17:00N 38°39' W 012°23'714.1
2017-Nov-19 16:30N 38°46' W 012°21'814.2
2017-Nov-19 15:55N 38°54' W 012°18'1514.2
2017-Nov-19 14:52N 39°08' W 012°13'613.8
2017-Nov-19 14:25N 39°14' W 012°11'613.8
2017-Nov-19 14:01N 39°20' W 012°10'813.8
2017-Nov-19 13:27N 39°27' W 012°07'714.0
2017-Nov-19 12:58N 39°34' W 012°05'714.2
2017-Nov-19 12:30N 39°40' W 012°03'713.9
2017-Nov-19 12:00N 39°47' W 012°01'714.0
2017-Nov-19 11:30N 39°54' W 011°58'713.8
2017-Nov-19 11:00N 40°00' W 011°56'713.8
2017-Nov-19 10:30N 40°07' W 011°54'713.9
2017-Nov-19 10:00N 40°14' W 011°51'1213.7
2017-Nov-19 09:06N 40°26' W 011°47'2614.1
2017-Nov-19 07:14N 40°51' W 011°37'2213.7
2017-Nov-19 05:38N 41°12' W 011°30'214.0
2017-Nov-19 05:29N 41°14' W 011°30'713.9
2017-Nov-19 05:00N 41°21' W 011°28'713.7
2017-Nov-19 04:30N 41°27' W 011°25'35213.4
2017-Nov-18 02:20N 46°45' W 007°56'513.5
2017-Nov-18 01:58N 46°49' W 007°52'613.7
2017-Nov-18 01:30N 46°55' W 007°47'913.5
2017-Nov-18 00:48N 47°02' W 007°39'513.6
2017-Nov-18 00:28N 47°06' W 007°35'813.4
2017-Nov-17 23:54N 47°13' W 007°30'613.5
2017-Nov-17 23:29N 47°18' W 007°25'1014.1
2017-Nov-17 22:48N 47°26' W 007°18'614.3
2017-Nov-17 22:23N 47°31' W 007°13'714.0
2017-Nov-17 21:53N 47°36' W 007°07'614.2
2017-Nov-17 21:30N 47°41' W 007°02'714.4
2017-Nov-17 20:59N 47°47' W 006°56'714.5
2017-Nov-17 20:29N 47°53' W 006°49'814.8
2017-Nov-17 19:54N 47°59' W 006°41'814.7
2017-Nov-17 19:24N 48°05' W 006°34'614.5
2017-Nov-17 18:58N 48°10' W 006°28'714.5
2017-Nov-17 18:28N 48°16' W 006°22'1114.1
2017-Nov-17 17:40N 48°25' W 006°12'313.9
2017-Nov-17 17:27N 48°27' W 006°09'1013.7
2017-Nov-17 16:44N 48°36' W 006°02'413.5
2017-Nov-17 16:28N 48°39' W 005°60'713.0
2017-Nov-17 15:54N 48°46' W 005°54'612.9
2017-Nov-17 15:27N 48°51' W 005°50'611.9
2017-Nov-17 14:58N 48°55' W 005°44'3212.4
2017-Nov-17 12:24N 49°11' W 005°02'713.6
2017-Nov-17 11:52N 49°15' W 004°52'6514.4
2017-Nov-17 07:21N 49°48' W 003°26'413.0
2017-Nov-17 07:00N 49°50' W 003°20'612.6
2017-Nov-17 06:30N 49°54' W 003°12'612.3
2017-Nov-17 06:00N 49°56' W 003°03'612.3
2017-Nov-17 05:30N 49°58' W 002°54'612.4
2017-Nov-17 05:00N 49°60' W 002°45'612.7
2017-Nov-17 04:30N 50°01' W 002°35'1813.8
2017-Nov-17 03:12N 50°06' W 002°08'315.1
2017-Nov-17 03:00N 50°07' W 002°04'815.6
2017-Nov-17 02:30N 50°09' W 001°52'816.4
2017-Nov-17 02:00N 50°11' W 001°40'816.8
2017-Nov-17 01:31N 50°14' W 001°27'816.9
2017-Nov-17 01:01N 50°16' W 001°15'3216.1
2017-Nov-16 23:01N 50°25' W 000°26'115.1
2017-Nov-16 22:59N 50°25' W 000°25'714.6
2017-Nov-16 22:30N 50°27' W 000°15'713.9
2017-Nov-16 22:01N 50°28' W 000°04'713.5
2017-Nov-16 21:30N 50°30' E 000°06'612.9
2017-Nov-16 21:00N 50°32' E 000°16'612.3
2017-Nov-16 20:30N 50°34' E 000°25'611.7
2017-Nov-16 20:01N 50°35' E 000°34'611.6
2017-Nov-16 19:31N 50°39' E 000°42'611.8
2017-Nov-16 19:00N 50°42' E 000°49'612.3
2017-Nov-16 18:31N 50°45' E 000°58'713.1
2017-Nov-16 18:00N 50°48' E 001°07'713.6
2017-Nov-16 17:29N 50°52' E 001°16'713.9
2017-Nov-16 17:00N 50°58' E 001°22'713.9
2017-Nov-16 16:30N 51°03' E 001°30'713.0
2017-Nov-16 16:00N 51°07' E 001°37'612.5
2017-Nov-16 15:31N 51°12' E 001°44'611.8
2017-Nov-16 15:00N 51°17' E 001°49'611.1
2017-Nov-16 14:30N 51°21' E 001°54'510.8
2017-Nov-16 14:00N 51°26' E 001°58'510.6
2017-Nov-16 13:30N 51°30' E 002°04'510.4
2017-Nov-16 13:00N 51°34' E 002°09'510.0
2017-Nov-16 12:30N 51°38' E 002°15'510.1
2017-Nov-16 12:00N 51°42' E 002°18'510.1
2017-Nov-16 11:30N 51°46' E 002°23'7312.3
2017-Nov-16 05:35N 52°43' E 003°38'712.4
2017-Nov-16 05:03N 52°48' E 003°45'112.2
2017-Nov-16 04:59N 52°49' E 003°46'611.9
2017-Nov-16 04:30N 52°53' E 003°52'611.7
2017-Nov-16 04:00N 52°58' E 003°58'611.5
2017-Nov-16 03:30N 53°01' E 004°06'611.5
2017-Nov-16 03:00N 53°05' E 004°13'611.3
2017-Nov-16 02:30N 53°08' E 004°21'510.4
2017-Nov-16 02:00N 53°12' E 004°26'611.1
2017-Nov-16 01:29N 53°18' E 004°29'  
2017-Nov-13 01:58N 63°01' E 007°49'0 0.0
2017-Nov-13 01:28N 63°01' E 007°49'0 0.2
2017-Nov-13 00:58N 63°01' E 007°49'0 0.0
2017-Nov-13 00:28N 63°01' E 007°49'0 0.0
2017-Nov-12 23:58N 63°01' E 007°49'0 0.2
2017-Nov-12 23:28N 63°01' E 007°49'0 0.2
2017-Nov-12 22:58N 63°01' E 007°49'0 0.1
2017-Nov-12 22:28N 63°01' E 007°49'0 0.0
2017-Nov-12 21:58N 63°01' E 007°49'0 0.1
2017-Nov-12 21:28N 63°01' E 007°49'0 0.1
2017-Nov-12 20:58N 63°01' E 007°49'0 0.2
2017-Nov-12 20:28N 63°01' E 007°49'0 0.1
2017-Nov-12 19:58N 63°01' E 007°49'0 0.0
2017-Nov-12 19:28N 63°01' E 007°49'0 0.0
2017-Nov-12 18:58N 63°01' E 007°49'0 0.0
2017-Nov-12 18:28N 63°01' E 007°49'0 0.0
2017-Nov-12 17:58N 63°01' E 007°49'0 0.0
2017-Nov-12 17:28N 63°01' E 007°49'0 0.0
2017-Nov-12 16:58N 63°01' E 007°49'0 0.1
2017-Nov-12 16:28N 63°01' E 007°49'0 0.0
2017-Nov-12 15:58N 63°01' E 007°49'0 0.3
2017-Nov-12 15:28N 63°01' E 007°49'0 0.1
2017-Nov-12 14:58N 63°01' E 007°49'0 0.1
2017-Nov-12 14:28N 63°01' E 007°49'0 0.0
2017-Nov-12 13:58N 63°01' E 007°49'0 0.0
2017-Nov-12 13:28N 63°01' E 007°49'0 0.0
2017-Nov-12 12:58N 63°01' E 007°49'0 0.0
2017-Nov-12 12:28N 63°01' E 007°49'0 0.1
2017-Nov-12 11:58N 63°01' E 007°49'0 0.1
2017-Nov-12 11:28N 63°01' E 007°49'0 0.1
2017-Nov-12 10:58N 63°01' E 007°49'0 0.1
2017-Nov-12 10:28N 63°01' E 007°49'0 0.0
2017-Nov-12 09:58N 63°01' E 007°49'0 0.1
2017-Nov-12 09:28N 63°01' E 007°49'0 0.0
2017-Nov-12 08:58N 63°01' E 007°49'0 0.1
2017-Nov-12 08:28N 63°01' E 007°49'0 0.1
2017-Nov-12 07:58N 63°01' E 007°49'0 0.0
2017-Nov-12 07:28N 63°01' E 007°49'0 0.1
2017-Nov-12 06:58N 63°01' E 007°49'0 0.2
2017-Nov-12 06:28N 63°01' E 007°49'0 0.2
2017-Nov-12 05:58N 63°01' E 007°49'0 0.1
2017-Nov-12 05:28N 63°01' E 007°49'0 0.2
2017-Nov-12 04:58N 63°01' E 007°49'0 0.1
2017-Nov-12 04:28N 63°01' E 007°49'0 0.1
2017-Nov-12 03:58N 63°01' E 007°49'0 0.2
2017-Nov-12 03:28N 63°01' E 007°49'0 0.3
2017-Nov-12 02:58N 63°01' E 007°49'0 0.0
2017-Nov-12 02:28N 63°01' E 007°49'0 0.1
2017-Nov-12 01:58N 63°01' E 007°49'0 0.1
2017-Nov-12 01:28N 63°01' E 007°49'0 0.0
2017-Nov-12 00:58N 63°01' E 007°49'0 0.1
2017-Nov-12 00:28N 63°01' E 007°49'0 0.0
2017-Nov-11 23:58N 63°01' E 007°49'0 0.0
2017-Nov-11 23:28N 63°01' E 007°49'0 0.0
2017-Nov-11 22:58N 63°01' E 007°49'0 0.0
2017-Nov-11 22:28N 63°01' E 007°49'0 0.0
2017-Nov-11 21:58N 63°01' E 007°49'0 0.0
2017-Nov-11 21:28N 63°01' E 007°49'0 0.0
2017-Nov-11 20:58N 63°01' E 007°49'0 0.0
2017-Nov-11 20:28N 63°01' E 007°49'0 0.0
2017-Nov-11 19:58N 63°01' E 007°49'0 0.1
2017-Nov-11 19:28N 63°01' E 007°49'0 0.0
2017-Nov-11 18:58N 63°01' E 007°49'0 0.0
2017-Nov-11 18:28N 63°01' E 007°49'0 0.0
2017-Nov-11 17:58N 63°01' E 007°49'0 0.0
2017-Nov-11 17:28N 63°01' E 007°49'0 0.0
2017-Nov-11 16:58N 63°01' E 007°49'0 0.1
2017-Nov-11 16:28N 63°01' E 007°49'0 0.1
2017-Nov-11 15:58N 63°01' E 007°49'0 0.0
2017-Nov-11 15:28N 63°01' E 007°49'0 0.0
2017-Nov-11 14:58N 63°01' E 007°49'0 0.0
2017-Nov-11 14:28N 63°01' E 007°49'0 0.0
2017-Nov-11 13:58N 63°01' E 007°49'0 0.0
2017-Nov-11 13:28N 63°01' E 007°49'0 0.0
2017-Nov-11 12:58N 63°01' E 007°49'0 0.1
2017-Nov-11 12:28N 63°01' E 007°49'0 0.1
2017-Nov-11 11:58N 63°01' E 007°49'0 0.1
2017-Nov-11 11:28N 63°01' E 007°49'0 0.0
2017-Nov-11 10:58N 63°01' E 007°49'0 0.0
2017-Nov-11 10:28N 63°01' E 007°49'0 0.0
2017-Nov-11 09:58N 63°01' E 007°49'0 0.1
2017-Nov-11 09:28N 63°01' E 007°49'0 0.1
2017-Nov-11 08:58N 63°01' E 007°49'0 0.1
2017-Nov-11 08:28N 63°01' E 007°49'0 0.0
2017-Nov-11 07:58N 63°01' E 007°49'0 0.0
2017-Nov-11 07:28N 63°01' E 007°49'0 0.0
2017-Nov-11 06:58N 63°01' E 007°49'0 0.0
2017-Nov-11 06:28N 63°01' E 007°49'0 0.0
2017-Nov-11 05:58N 63°01' E 007°49'0 0.1
2017-Nov-11 05:28N 63°01' E 007°49'0 0.2
2017-Nov-11 04:58N 63°01' E 007°49'0 0.1
2017-Nov-11 04:28N 63°01' E 007°49'0 0.0
2017-Nov-11 03:58N 63°01' E 007°49'0 0.1
2017-Nov-11 03:28N 63°01' E 007°49'0 0.1
2017-Nov-11 02:58N 63°01' E 007°49'0 0.1
2017-Nov-11 02:28N 63°01' E 007°49'0 0.1
2017-Nov-11 01:58N 63°01' E 007°49'0 0.0
2017-Nov-11 01:28N 63°01' E 007°49'0 0.1
2017-Nov-11 00:58N 63°01' E 007°49'0 0.1
2017-Nov-11 00:28N 63°01' E 007°49'0 0.2
2017-Nov-10 23:58N 63°01' E 007°49'0 0.0
2017-Nov-10 23:28N 63°01' E 007°49'0 0.0
2017-Nov-10 22:58N 63°01' E 007°49'0 0.0
2017-Nov-10 22:28N 63°01' E 007°49'0 0.0
2017-Nov-10 21:58N 63°01' E 007°49'0 0.0
2017-Nov-10 21:28N 63°01' E 007°49'0 0.0
2017-Nov-10 20:58N 63°01' E 007°49'0 0.1
2017-Nov-10 20:28N 63°01' E 007°49'0 0.0
2017-Nov-10 19:58N 63°01' E 007°49'0 0.0
2017-Nov-10 19:28N 63°01' E 007°49'0 0.1
2017-Nov-10 18:58N 63°01' E 007°49'0 0.0
2017-Nov-10 18:28N 63°01' E 007°49'0 0.1
2017-Nov-10 17:58N 63°01' E 007°49'0 0.0
2017-Nov-10 17:28N 63°01' E 007°49'0 0.0
2017-Nov-10 16:58N 63°01' E 007°49'0 0.2
2017-Nov-10 16:28N 63°01' E 007°49'0 0.2
2017-Nov-10 15:58N 63°01' E 007°49'0 0.2
2017-Nov-10 15:28N 63°01' E 007°49'0 0.1
2017-Nov-10 14:58N 63°01' E 007°49'0 0.1
2017-Nov-10 14:28N 63°01' E 007°49'0 0.1
2017-Nov-10 13:58N 63°01' E 007°49'0 0.0
2017-Nov-10 13:28N 63°01' E 007°49'0 0.0
2017-Nov-10 12:58N 63°01' E 007°49'0 0.0
2017-Nov-10 12:28N 63°01' E 007°49'0 0.1
2017-Nov-10 11:58N 63°01' E 007°49'0 0.1
2017-Nov-10 11:28N 63°01' E 007°49'0 0.1
2017-Nov-10 10:58N 63°01' E 007°49'0 0.0
2017-Nov-10 10:28N 63°01' E 007°49'0 0.1
2017-Nov-10 09:58N 63°01' E 007°49'0 0.0
2017-Nov-10 09:28N 63°01' E 007°49'0 0.0
2017-Nov-10 08:58N 63°01' E 007°49'0 0.0
2017-Nov-10 08:28N 63°01' E 007°49'0 0.1
2017-Nov-10 07:58N 63°01' E 007°49'0 0.0
2017-Nov-10 07:28N 63°01' E 007°49'0 0.1
2017-Nov-10 06:58N 63°01' E 007°49'0 0.1
2017-Nov-10 06:28N 63°01' E 007°49'0 0.0
2017-Nov-10 05:58N 63°01' E 007°49'0 0.0
2017-Nov-10 05:28N 63°01' E 007°49'0 0.0
2017-Nov-10 04:58N 63°01' E 007°49'0 0.1
2017-Nov-10 04:28N 63°01' E 007°49'0 0.0
2017-Nov-10 03:58N 63°01' E 007°49'0 0.0
2017-Nov-10 03:28N 63°01' E 007°49'0 0.1
2017-Nov-10 02:58N 63°01' E 007°49'0 0.1
2017-Nov-10 02:28N 63°01' E 007°49'0 0.0
2017-Nov-10 01:58N 63°01' E 007°49'0 0.0
2017-Nov-10 01:28N 63°01' E 007°49'0 0.0
2017-Nov-10 00:58N 63°01' E 007°49'0 0.0
2017-Nov-10 00:28N 63°01' E 007°49'0 0.0
2017-Nov-09 23:58N 63°01' E 007°49'  

Dump ship's entire track history